sensor_id;sensor_type;location;lat;lon;timestamp;temperature;humidity
20442;DHT22;10380;52.102;20.614;2023-09-12T00:02:14;19.20;99.90
20442;DHT22;10380;52.102;20.614;2023-09-12T00:04:41;19.20;99.90
20442;DHT22;10380;52.102;20.614;2023-09-12T00:07:08;19.40;99.90
20442;DHT22;10380;52.102;20.614;2023-09-12T00:09:35;19.20;99.90
20442;DHT22;10380;52.102;20.614;2023-09-12T00:12:02;19.10;99.90
20442;DHT22;10380;52.102;20.614;2023-09-12T00:14:29;19.10;99.90
20442;DHT22;10380;52.102;20.614;2023-09-12T00:16:56;19.00;99.90
20442;DHT22;10380;52.102;20.614;2023-09-12T00:19:23;19.00;99.90
20442;DHT22;10380;52.102;20.614;2023-09-12T00:21:50;19.00;99.90
20442;DHT22;10380;52.102;20.614;2023-09-12T00:24:17;18.90;99.90
20442;DHT22;10380;52.102;20.614;2023-09-12T00:26:44;18.90;99.90
20442;DHT22;10380;52.102;20.614;2023-09-12T00:29:12;18.90;99.90
20442;DHT22;10380;52.102;20.614;2023-09-12T00:31:39;19.00;99.90
20442;DHT22;10380;52.102;20.614;2023-09-12T00:34:06;18.80;99.90
20442;DHT22;10380;52.102;20.614;2023-09-12T00:36:33;18.70;99.90
20442;DHT22;10380;52.102;20.614;2023-09-12T00:39:00;18.20;99.90
20442;DHT22;10380;52.102;20.614;2023-09-12T00:41:27;18.70;99.90
20442;DHT22;10380;52.102;20.614;2023-09-12T00:43:54;18.60;99.90
20442;DHT22;10380;52.102;20.614;2023-09-12T00:46:22;18.60;99.90
20442;DHT22;10380;52.102;20.614;2023-09-12T00:48:51;18.60;99.90
20442;DHT22;10380;52.102;20.614;2023-09-12T00:51:20;18.60;99.90
20442;DHT22;10380;52.102;20.614;2023-09-12T00:53:48;18.50;99.90
20442;DHT22;10380;52.102;20.614;2023-09-12T00:56:15;18.50;99.90
20442;DHT22;10380;52.102;20.614;2023-09-12T00:58:43;18.30;99.90
20442;DHT22;10380;52.102;20.614;2023-09-12T01:01:10;18.40;99.90
20442;DHT22;10380;52.102;20.614;2023-09-12T01:03:37;18.40;99.90
20442;DHT22;10380;52.102;20.614;2023-09-12T01:06:07;18.30;99.90
20442;DHT22;10380;52.102;20.614;2023-09-12T01:08:35;18.30;99.90
20442;DHT22;10380;52.102;20.614;2023-09-12T01:11:05;18.30;99.90
20442;DHT22;10380;52.102;20.614;2023-09-12T01:13:32;18.30;99.90
20442;DHT22;10380;52.102;20.614;2023-09-12T01:15:59;18.30;99.90
20442;DHT22;10380;52.102;20.614;2023-09-12T01:18:27;18.20;99.90
20442;DHT22;10380;52.102;20.614;2023-09-12T01:26:46;18.20;99.90
20442;DHT22;10380;52.102;20.614;2023-09-12T01:29:16;18.20;99.90
20442;DHT22;10380;52.102;20.614;2023-09-12T01:31:46;18.20;99.90
20442;DHT22;10380;52.102;20.614;2023-09-12T01:34:14;18.20;99.90
20442;DHT22;10380;52.102;20.614;2023-09-12T01:36:41;18.20;99.90
20442;DHT22;10380;52.102;20.614;2023-09-12T01:39:09;18.00;99.90
20442;DHT22;10380;52.102;20.614;2023-09-12T01:41:40;18.00;99.90
20442;DHT22;10380;52.102;20.614;2023-09-12T01:44:08;17.90;99.90
20442;DHT22;10380;52.102;20.614;2023-09-12T01:46:37;17.90;99.90
20442;DHT22;10380;52.102;20.614;2023-09-12T01:49:05;18.10;99.90
20442;DHT22;10380;52.102;20.614;2023-09-12T01:51:34;17.90;99.90
20442;DHT22;10380;52.102;20.614;2023-09-12T01:54:02;17.90;99.90
20442;DHT22;10380;52.102;20.614;2023-09-12T01:56:30;18.00;99.90
20442;DHT22;10380;52.102;20.614;2023-09-12T01:58:58;17.90;99.90
20442;DHT22;10380;52.102;20.614;2023-09-12T02:01:25;17.90;99.90
20442;DHT22;10380;52.102;20.614;2023-09-12T02:03:54;17.90;99.90
20442;DHT22;10380;52.102;20.614;2023-09-12T02:06:21;17.90;99.90
20442;DHT22;10380;52.102;20.614;2023-09-12T02:08:48;17.80;99.90
20442;DHT22;10380;52.102;20.614;2023-09-12T02:11:16;17.90;99.90
20442;DHT22;10380;52.102;20.614;2023-09-12T02:13:44;18.00;99.90
20442;DHT22;10380;52.102;20.614;2023-09-12T02:18:38;17.90;99.90
20442;DHT22;10380;52.102;20.614;2023-09-12T02:23:33;17.90;99.90
20442;DHT22;10380;52.102;20.614;2023-09-12T02:26:00;17.80;99.90
20442;DHT22;10380;52.102;20.614;2023-09-12T02:28:27;17.80;99.90
20442;DHT22;10380;52.102;20.614;2023-09-12T02:30:54;17.80;99.90
20442;DHT22;10380;52.102;20.614;2023-09-12T02:33:23;17.70;99.90
20442;DHT22;10380;52.102;20.614;2023-09-12T02:35:52;17.70;99.90
20442;DHT22;10380;52.102;20.614;2023-09-12T02:38:19;17.60;99.90
20442;DHT22;10380;52.102;20.614;2023-09-12T02:40:47;17.60;99.90
20442;DHT22;10380;52.102;20.614;2023-09-12T02:43:14;17.50;99.90
20442;DHT22;10380;52.102;20.614;2023-09-12T02:45:41;17.60;99.90
20442;DHT22;10380;52.102;20.614;2023-09-12T03:02:52;17.50;99.90
20442;DHT22;10380;52.102;20.614;2023-09-12T03:05:19;17.30;99.90
20442;DHT22;10380;52.102;20.614;2023-09-12T03:10:13;17.30;99.90
20442;DHT22;10380;52.102;20.614;2023-09-12T03:12:41;17.40;99.90
20442;DHT22;10380;52.102;20.614;2023-09-12T03:15:08;17.30;99.90
20442;DHT22;10380;52.102;20.614;2023-09-12T03:17:36;17.30;99.90
20442;DHT22;10380;52.102;20.614;2023-09-12T03:20:04;16.90;99.90
20442;DHT22;10380;52.102;20.614;2023-09-12T03:25:05;17.10;99.90
20442;DHT22;10380;52.102;20.614;2023-09-12T03:30:00;17.20;99.90
20442;DHT22;10380;52.102;20.614;2023-09-12T03:34:55;17.10;99.90
20442;DHT22;10380;52.102;20.614;2023-09-12T03:39:54;17.10;99.90
20442;DHT22;10380;52.102;20.614;2023-09-12T03:42:21;17.20;99.90
20442;DHT22;10380;52.102;20.614;2023-09-12T03:49:42;17.20;99.90
20442;DHT22;10380;52.102;20.614;2023-09-12T03:54:36;17.10;99.90
20442;DHT22;10380;52.102;20.614;2023-09-12T03:57:05;17.30;99.90
20442;DHT22;10380;52.102;20.614;2023-09-12T03:59:35;17.10;99.90
20442;DHT22;10380;52.102;20.614;2023-09-12T04:02:02;17.30;99.90
20442;DHT22;10380;52.102;20.614;2023-09-12T04:04:30;17.20;99.90
20442;DHT22;10380;52.102;20.614;2023-09-12T04:11:53;17.20;99.90
20442;DHT22;10380;52.102;20.614;2023-09-12T04:14:21;17.00;99.90
20442;DHT22;10380;52.102;20.614;2023-09-12T04:16:48;17.20;99.90
20442;DHT22;10380;52.102;20.614;2023-09-12T04:19:15;17.20;99.90
20442;DHT22;10380;52.102;20.614;2023-09-12T04:21:42;17.20;99.90
20442;DHT22;10380;52.102;20.614;2023-09-12T04:24:09;17.20;99.90
20442;DHT22;10380;52.102;20.614;2023-09-12T04:26:36;17.20;99.90
20442;DHT22;10380;52.102;20.614;2023-09-12T04:29:04;17.20;99.90
20442;DHT22;10380;52.102;20.614;2023-09-12T04:31:31;17.20;99.90
20442;DHT22;10380;52.102;20.614;2023-09-12T04:34:01;17.20;99.90
20442;DHT22;10380;52.102;20.614;2023-09-12T04:36:28;17.30;99.90
20442;DHT22;10380;52.102;20.614;2023-09-12T04:38:55;17.30;99.90
20442;DHT22;10380;52.102;20.614;2023-09-12T04:43:50;17.30;99.90
20442;DHT22;10380;52.102;20.614;2023-09-12T04:46:17;17.30;99.90
20442;DHT22;10380;52.102;20.614;2023-09-12T04:48:44;17.30;99.90
20442;DHT22;10380;52.102;20.614;2023-09-12T04:51:12;17.70;99.90
20442;DHT22;10380;52.102;20.614;2023-09-12T04:53:39;17.30;99.90
20442;DHT22;10380;52.102;20.614;2023-09-12T04:56:07;17.40;99.90
20442;DHT22;10380;52.102;20.614;2023-09-12T04:58:36;17.40;99.90
20442;DHT22;10380;52.102;20.614;2023-09-12T05:01:03;17.40;99.90
20442;DHT22;10380;52.102;20.614;2023-09-12T05:03:30;17.50;99.90
20442;DHT22;10380;52.102;20.614;2023-09-12T05:05:59;17.50;99.90
20442;DHT22;10380;52.102;20.614;2023-09-12T05:08:26;17.50;99.90
20442;DHT22;10380;52.102;20.614;2023-09-12T05:10:54;17.60;99.90
20442;DHT22;10380;52.102;20.614;2023-09-12T05:13:21;17.60;99.90
20442;DHT22;10380;52.102;20.614;2023-09-12T05:15:48;17.60;99.90
20442;DHT22;10380;52.102;20.614;2023-09-12T05:18:15;17.70;99.90
20442;DHT22;10380;52.102;20.614;2023-09-12T05:20:42;17.80;99.90
20442;DHT22;10380;52.102;20.614;2023-09-12T05:28:06;17.90;99.90
20442;DHT22;10380;52.102;20.614;2023-09-12T05:30:33;18.10;99.90
20442;DHT22;10380;52.102;20.614;2023-09-12T05:33:02;18.10;99.90
20442;DHT22;10380;52.102;20.614;2023-09-12T05:35:29;18.30;99.90
20442;DHT22;10380;52.102;20.614;2023-09-12T05:37:57;18.20;99.90
20442;DHT22;10380;52.102;20.614;2023-09-12T05:40:24;18.40;99.90
20442;DHT22;10380;52.102;20.614;2023-09-12T05:42:51;18.50;99.90
20442;DHT22;10380;52.102;20.614;2023-09-12T05:45:18;18.50;99.90
20442;DHT22;10380;52.102;20.614;2023-09-12T05:47:46;18.60;99.90
20442;DHT22;10380;52.102;20.614;2023-09-12T05:50:13;18.80;99.90
20442;DHT22;10380;52.102;20.614;2023-09-12T05:52:41;18.80;99.90
20442;DHT22;10380;52.102;20.614;2023-09-12T05:57:36;19.00;99.90
20442;DHT22;10380;52.102;20.614;2023-09-12T06:00:05;19.00;99.90
20442;DHT22;10380;52.102;20.614;2023-09-12T06:02:32;19.10;99.90
20442;DHT22;10380;52.102;20.614;2023-09-12T06:05:00;19.20;99.90
20442;DHT22;10380;52.102;20.614;2023-09-12T06:07:27;19.30;99.90
20442;DHT22;10380;52.102;20.614;2023-09-12T06:09:55;19.60;99.90
20442;DHT22;10380;52.102;20.614;2023-09-12T06:12:22;19.50;99.90
20442;DHT22;10380;52.102;20.614;2023-09-12T06:14:51;19.70;99.90
20442;DHT22;10380;52.102;20.614;2023-09-12T06:17:20;19.70;99.90
20442;DHT22;10380;52.102;20.614;2023-09-12T06:19:48;19.80;99.90
20442;DHT22;10380;52.102;20.614;2023-09-12T06:22:18;19.80;99.90
20442;DHT22;10380;52.102;20.614;2023-09-12T06:24:46;19.90;99.90
20442;DHT22;10380;52.102;20.614;2023-09-12T06:27:15;19.90;99.90
20442;DHT22;10380;52.102;20.614;2023-09-12T06:29:47;19.90;99.90
20442;DHT22;10380;52.102;20.614;2023-09-12T06:32:15;20.00;99.90
20442;DHT22;10380;52.102;20.614;2023-09-12T06:34:43;20.00;99.90
20442;DHT22;10380;52.102;20.614;2023-09-12T06:37:11;20.00;99.90
20442;DHT22;10380;52.102;20.614;2023-09-12T06:39:38;20.10;99.90
20442;DHT22;10380;52.102;20.614;2023-09-12T06:42:07;20.10;99.90
20442;DHT22;10380;52.102;20.614;2023-09-12T06:44:34;20.10;99.90
20442;DHT22;10380;52.102;20.614;2023-09-12T06:47:03;20.10;99.90
20442;DHT22;10380;52.102;20.614;2023-09-12T06:49:31;20.20;99.90
20442;DHT22;10380;52.102;20.614;2023-09-12T06:54:30;20.20;99.90
20442;DHT22;10380;52.102;20.614;2023-09-12T06:56:57;20.30;99.90
20442;DHT22;10380;52.102;20.614;2023-09-12T06:59:24;20.40;99.90
20442;DHT22;10380;52.102;20.614;2023-09-12T07:01:51;20.60;99.90
20442;DHT22;10380;52.102;20.614;2023-09-12T07:04:18;20.60;99.90
20442;DHT22;10380;52.102;20.614;2023-09-12T07:06:45;20.70;99.90
20442;DHT22;10380;52.102;20.614;2023-09-12T07:09:13;20.80;99.90
20442;DHT22;10380;52.102;20.614;2023-09-12T07:11:41;20.80;99.90
20442;DHT22;10380;52.102;20.614;2023-09-12T07:14:09;21.10;99.90
20442;DHT22;10380;52.102;20.614;2023-09-12T07:16:37;21.00;99.90
20442;DHT22;10380;52.102;20.614;2023-09-12T07:19:04;21.30;99.90
20442;DHT22;10380;52.102;20.614;2023-09-12T07:21:32;21.40;99.90
20442;DHT22;10380;52.102;20.614;2023-09-12T07:23:59;21.60;99.90
20442;DHT22;10380;52.102;20.614;2023-09-12T07:26:26;21.60;99.90
20442;DHT22;10380;52.102;20.614;2023-09-12T07:28:54;21.70;99.90
20442;DHT22;10380;52.102;20.614;2023-09-12T07:31:21;21.90;99.90
20442;DHT22;10380;52.102;20.614;2023-09-12T07:33:48;21.80;99.90
20442;DHT22;10380;52.102;20.614;2023-09-12T07:36:15;22.10;99.90
20442;DHT22;10380;52.102;20.614;2023-09-12T07:38:42;22.10;99.90
20442;DHT22;10380;52.102;20.614;2023-09-12T07:41:12;22.40;99.90
20442;DHT22;10380;52.102;20.614;2023-09-12T07:43:39;22.30;99.90
20442;DHT22;10380;52.102;20.614;2023-09-12T07:46:07;22.50;99.90
20442;DHT22;10380;52.102;20.614;2023-09-12T07:48:34;22.60;99.90
20442;DHT22;10380;52.102;20.614;2023-09-12T07:51:01;22.80;99.90
20442;DHT22;10380;52.102;20.614;2023-09-12T07:53:37;22.90;99.90
20442;DHT22;10380;52.102;20.614;2023-09-12T07:56:04;23.00;99.90
20442;DHT22;10380;52.102;20.614;2023-09-12T07:58:31;23.20;99.90
20442;DHT22;10380;52.102;20.614;2023-09-12T08:00:58;23.30;99.90
20442;DHT22;10380;52.102;20.614;2023-09-12T08:03:25;23.40;99.90
20442;DHT22;10380;52.102;20.614;2023-09-12T08:05:56;23.50;99.90
20442;DHT22;10380;52.102;20.614;2023-09-12T08:08:24;23.60;99.90
20442;DHT22;10380;52.102;20.614;2023-09-12T08:10:51;23.70;99.90
20442;DHT22;10380;52.102;20.614;2023-09-12T08:13:18;23.90;99.90
20442;DHT22;10380;52.102;20.614;2023-09-12T08:15:45;24.00;99.90
20442;DHT22;10380;52.102;20.614;2023-09-12T08:18:12;24.10;99.90
20442;DHT22;10380;52.102;20.614;2023-09-12T08:20:39;24.10;99.90
20442;DHT22;10380;52.102;20.614;2023-09-12T08:23:06;24.20;99.90
20442;DHT22;10380;52.102;20.614;2023-09-12T08:25:33;24.40;99.90
20442;DHT22;10380;52.102;20.614;2023-09-12T08:28:00;24.50;99.90
20442;DHT22;10380;52.102;20.614;2023-09-12T08:30:27;24.40;99.90
20442;DHT22;10380;52.102;20.614;2023-09-12T08:32:56;24.70;99.90
20442;DHT22;10380;52.102;20.614;2023-09-12T08:35:23;24.70;99.90
20442;DHT22;10380;52.102;20.614;2023-09-12T08:37:50;24.80;99.90
20442;DHT22;10380;52.102;20.614;2023-09-12T08:40:17;24.80;99.90
20442;DHT22;10380;52.102;20.614;2023-09-12T08:42:44;24.90;99.90
20442;DHT22;10380;52.102;20.614;2023-09-12T08:45:16;25.00;99.90
20442;DHT22;10380;52.102;20.614;2023-09-12T08:47:45;25.10;99.90
20442;DHT22;10380;52.102;20.614;2023-09-12T08:50:14;25.20;99.90
20442;DHT22;10380;52.102;20.614;2023-09-12T08:52:44;25.40;99.90
20442;DHT22;10380;52.102;20.614;2023-09-12T08:55:31;25.30;99.90
20442;DHT22;10380;52.102;20.614;2023-09-12T08:58:02;25.40;99.90
20442;DHT22;10380;52.102;20.614;2023-09-12T09:00:30;25.40;99.90
20442;DHT22;10380;52.102;20.614;2023-09-12T09:02:59;25.50;99.90
20442;DHT22;10380;52.102;20.614;2023-09-12T09:05:27;25.50;99.90
20442;DHT22;10380;52.102;20.614;2023-09-12T09:07:54;25.50;99.90
20442;DHT22;10380;52.102;20.614;2023-09-12T09:10:23;25.60;99.90
20442;DHT22;10380;52.102;20.614;2023-09-12T09:13:12;25.60;99.90
20442;DHT22;10380;52.102;20.614;2023-09-12T09:15:39;25.70;99.90
20442;DHT22;10380;52.102;20.614;2023-09-12T09:18:11;25.60;99.90
20442;DHT22;10380;52.102;20.614;2023-09-12T09:20:40;25.80;99.90
20442;DHT22;10380;52.102;20.614;2023-09-12T09:23:09;26.00;99.90
20442;DHT22;10380;52.102;20.614;2023-09-12T09:25:41;25.90;99.90
20442;DHT22;10380;52.102;20.614;2023-09-12T09:28:18;26.00;99.90
20442;DHT22;10380;52.102;20.614;2023-09-12T09:30:48;26.00;99.90
20442;DHT22;10380;52.102;20.614;2023-09-12T09:33:15;26.10;99.90
20442;DHT22;10380;52.102;20.614;2023-09-12T09:35:46;26.10;99.90
20442;DHT22;10380;52.102;20.614;2023-09-12T09:38:19;26.30;99.90
20442;DHT22;10380;52.102;20.614;2023-09-12T09:43:22;26.40;99.90
20442;DHT22;10380;52.102;20.614;2023-09-12T09:45:51;26.40;99.90
20442;DHT22;10380;52.102;20.614;2023-09-12T09:48:19;26.40;99.90
20442;DHT22;10380;52.102;20.614;2023-09-12T09:50:47;26.50;99.90
20442;DHT22;10380;52.102;20.614;2023-09-12T09:53:14;26.50;99.90
20442;DHT22;10380;52.102;20.614;2023-09-12T09:55:47;26.40;99.90
20442;DHT22;10380;52.102;20.614;2023-09-12T09:58:17;26.40;99.90
20442;DHT22;10380;52.102;20.614;2023-09-12T10:00:49;26.50;99.90
20442;DHT22;10380;52.102;20.614;2023-09-12T10:03:19;26.60;99.90
20442;DHT22;10380;52.102;20.614;2023-09-12T10:05:56;26.60;99.90
20442;DHT22;10380;52.102;20.614;2023-09-12T10:08:24;26.60;99.90
20442;DHT22;10380;52.102;20.614;2023-09-12T10:13:23;26.70;99.90
20442;DHT22;10380;52.102;20.614;2023-09-12T10:15:55;26.80;99.90
20442;DHT22;10380;52.102;20.614;2023-09-12T10:18:25;26.90;99.90
20442;DHT22;10380;52.102;20.614;2023-09-12T10:21:10;27.00;99.90
20442;DHT22;10380;52.102;20.614;2023-09-12T10:23:44;27.20;99.90
20442;DHT22;10380;52.102;20.614;2023-09-12T10:26:13;27.10;99.90
20442;DHT22;10380;52.102;20.614;2023-09-12T10:28:41;27.20;99.90
20442;DHT22;10380;52.102;20.614;2023-09-12T10:31:12;27.30;99.90
20442;DHT22;10380;52.102;20.614;2023-09-12T10:33:44;27.30;99.90
20442;DHT22;10380;52.102;20.614;2023-09-12T10:36:16;27.30;99.90
20442;DHT22;10380;52.102;20.614;2023-09-12T10:38:50;27.40;99.90
20442;DHT22;10380;52.102;20.614;2023-09-12T10:41:26;27.40;99.90
20442;DHT22;10380;52.102;20.614;2023-09-12T10:43:58;27.50;99.90
20442;DHT22;10380;52.102;20.614;2023-09-12T10:56:21;27.90;99.90
20442;DHT22;10380;52.102;20.614;2023-09-12T11:01:44;28.10;99.90
20442;DHT22;10380;52.102;20.614;2023-09-12T11:11:44;28.60;99.90
20442;DHT22;10380;52.102;20.614;2023-09-12T11:14:13;28.70;99.90
20442;DHT22;10380;52.102;20.614;2023-09-12T11:16:42;28.90;99.90
20442;DHT22;10380;52.102;20.614;2023-09-12T11:19:20;28.90;99.90
20442;DHT22;10380;52.102;20.614;2023-09-12T11:21:51;28.90;99.90
20442;DHT22;10380;52.102;20.614;2023-09-12T11:29:21;29.30;99.90
20442;DHT22;10380;52.102;20.614;2023-09-12T11:31:58;30.00;99.90
20442;DHT22;10380;52.102;20.614;2023-09-12T11:34:27;30.10;99.90
20442;DHT22;10380;52.102;20.614;2023-09-12T11:36:56;30.20;99.90
20442;DHT22;10380;52.102;20.614;2023-09-12T11:39:25;30.20;99.90
20442;DHT22;10380;52.102;20.614;2023-09-12T11:41:54;30.20;99.90
20442;DHT22;10380;52.102;20.614;2023-09-12T11:44:21;30.20;99.90
20442;DHT22;10380;52.102;20.614;2023-09-12T11:46:49;30.20;99.90
20442;DHT22;10380;52.102;20.614;2023-09-12T11:49:17;30.10;99.90
20442;DHT22;10380;52.102;20.614;2023-09-12T11:51:52;30.10;99.90
20442;DHT22;10380;52.102;20.614;2023-09-12T11:54:24;30.00;99.90
20442;DHT22;10380;52.102;20.614;2023-09-12T11:56:51;29.90;99.90
20442;DHT22;10380;52.102;20.614;2023-09-12T11:59:23;29.80;99.90
20442;DHT22;10380;52.102;20.614;2023-09-12T12:01:51;29.80;99.90
20442;DHT22;10380;52.102;20.614;2023-09-12T12:04:22;29.90;99.90
20442;DHT22;10380;52.102;20.614;2023-09-12T12:06:52;30.10;99.90
20442;DHT22;10380;52.102;20.614;2023-09-12T12:09:19;30.60;99.90
20442;DHT22;10380;52.102;20.614;2023-09-12T12:11:47;31.30;99.90
20442;DHT22;10380;52.102;20.614;2023-09-12T12:14:16;32.10;99.90
20442;DHT22;10380;52.102;20.614;2023-09-12T12:16:44;32.90;99.90
20442;DHT22;10380;52.102;20.614;2023-09-12T12:19:12;33.40;99.90
20442;DHT22;10380;52.102;20.614;2023-09-12T12:21:40;33.90;99.90
20442;DHT22;10380;52.102;20.614;2023-09-12T12:24:12;34.40;98.40
20442;DHT22;10380;52.102;20.614;2023-09-12T12:26:43;34.90;97.30
20442;DHT22;10380;52.102;20.614;2023-09-12T12:31:38;35.90;93.40
20442;DHT22;10380;52.102;20.614;2023-09-12T12:34:06;36.40;93.40
20442;DHT22;10380;52.102;20.614;2023-09-12T12:36:56;37.00;91.80
20442;DHT22;10380;52.102;20.614;2023-09-12T12:39:25;37.40;89.20
20442;DHT22;10380;52.102;20.614;2023-09-12T12:41:53;37.80;87.60
20442;DHT22;10380;52.102;20.614;2023-09-12T12:44:21;37.90;79.80
20442;DHT22;10380;52.102;20.614;2023-09-12T12:49:16;38.10;79.10
20442;DHT22;10380;52.102;20.614;2023-09-12T12:59:07;38.80;71.10
20442;DHT22;10380;52.102;20.614;2023-09-12T13:01:36;38.90;69.90
20442;DHT22;10380;52.102;20.614;2023-09-12T13:04:06;38.70;69.00
20442;DHT22;10380;52.102;20.614;2023-09-12T13:06:34;38.50;68.20
20442;DHT22;10380;52.102;20.614;2023-09-12T13:09:06;38.20;67.60
20442;DHT22;10380;52.102;20.614;2023-09-12T13:14:04;37.90;66.80
20442;DHT22;10380;52.102;20.614;2023-09-12T13:16:38;38.00;67.60
20442;DHT22;10380;52.102;20.614;2023-09-12T13:19:07;38.00;67.40
20442;DHT22;10380;52.102;20.614;2023-09-12T13:21:34;37.90;66.60
20442;DHT22;10380;52.102;20.614;2023-09-12T13:24:02;37.70;66.70
20442;DHT22;10380;52.102;20.614;2023-09-12T13:26:29;37.60;67.40
20442;DHT22;10380;52.102;20.614;2023-09-12T13:28:56;37.60;66.50
20442;DHT22;10380;52.102;20.614;2023-09-12T13:31:24;37.50;65.20
20442;DHT22;10380;52.102;20.614;2023-09-12T13:36:19;37.50;64.00
20442;DHT22;10380;52.102;20.614;2023-09-12T13:38:46;37.50;65.50
20442;DHT22;10380;52.102;20.614;2023-09-12T13:41:15;37.50;66.10
20442;DHT22;10380;52.102;20.614;2023-09-12T13:43:42;37.40;64.90
20442;DHT22;10380;52.102;20.614;2023-09-12T13:46:12;37.20;64.40
20442;DHT22;10380;52.102;20.614;2023-09-12T13:48:40;37.00;64.50
20442;DHT22;10380;52.102;20.614;2023-09-12T13:51:07;36.60;64.40
20442;DHT22;10380;52.102;20.614;2023-09-12T13:53:34;36.10;64.50
20442;DHT22;10380;52.102;20.614;2023-09-12T13:56:01;35.50;65.20
20442;DHT22;10380;52.102;20.614;2023-09-12T13:58:48;35.10;66.30
20442;DHT22;10380;52.102;20.614;2023-09-12T14:01:17;34.70;67.10
20442;DHT22;10380;52.102;20.614;2023-09-12T14:03:58;34.50;67.50
20442;DHT22;10380;52.102;20.614;2023-09-12T14:06:26;34.40;67.60
20442;DHT22;10380;52.102;20.614;2023-09-12T14:08:53;34.40;67.60
20442;DHT22;10380;52.102;20.614;2023-09-12T14:11:21;34.40;67.10
20442;DHT22;10380;52.102;20.614;2023-09-12T14:14:02;34.40;66.90
20442;DHT22;10380;52.102;20.614;2023-09-12T14:16:42;34.40;66.60
20442;DHT22;10380;52.102;20.614;2023-09-12T14:19:14;34.30;67.40
20442;DHT22;10380;52.102;20.614;2023-09-12T14:21:43;34.20;68.00
20442;DHT22;10380;52.102;20.614;2023-09-12T14:24:15;34.20;67.50
20442;DHT22;10380;52.102;20.614;2023-09-12T14:29:11;34.20;68.30
20442;DHT22;10380;52.102;20.614;2023-09-12T14:31:40;34.10;69.20
20442;DHT22;10380;52.102;20.614;2023-09-12T14:34:16;33.80;68.80
20442;DHT22;10380;52.102;20.614;2023-09-12T14:36:43;33.50;69.70
20442;DHT22;10380;52.102;20.614;2023-09-12T14:39:12;33.20;69.80
20442;DHT22;10380;52.102;20.614;2023-09-12T14:41:41;32.80;70.30
20442;DHT22;10380;52.102;20.614;2023-09-12T14:44:09;32.60;71.40
20442;DHT22;10380;52.102;20.614;2023-09-12T14:46:36;32.20;73.10
20442;DHT22;10380;52.102;20.614;2023-09-12T14:49:03;32.00;73.30
20442;DHT22;10380;52.102;20.614;2023-09-12T14:51:30;31.70;73.60
20442;DHT22;10380;52.102;20.614;2023-09-12T14:54:00;31.50;74.10
20442;DHT22;10380;52.102;20.614;2023-09-12T14:56:27;31.20;75.30
20442;DHT22;10380;52.102;20.614;2023-09-12T14:58:54;31.00;76.00
20442;DHT22;10380;52.102;20.614;2023-09-12T15:06:16;30.50;77.40
20442;DHT22;10380;52.102;20.614;2023-09-12T15:08:45;30.30;78.90
20442;DHT22;10380;52.102;20.614;2023-09-12T15:11:12;30.30;79.50
20442;DHT22;10380;52.102;20.614;2023-09-12T15:13:39;30.20;80.10
20442;DHT22;10380;52.102;20.614;2023-09-12T15:16:08;30.20;80.60
20442;DHT22;10380;52.102;20.614;2023-09-12T15:18:35;30.30;81.40
20442;DHT22;10380;52.102;20.614;2023-09-12T15:21:04;30.40;81.80
20442;DHT22;10380;52.102;20.614;2023-09-12T15:23:31;30.50;82.00
20442;DHT22;10380;52.102;20.614;2023-09-12T15:25:58;30.70;82.60
20442;DHT22;10380;52.102;20.614;2023-09-12T15:28:25;30.90;82.80
20442;DHT22;10380;52.102;20.614;2023-09-12T15:30:52;31.10;82.60
20442;DHT22;10380;52.102;20.614;2023-09-12T15:33:20;31.10;81.20
20442;DHT22;10380;52.102;20.614;2023-09-12T15:48:19;31.40;80.70
20442;DHT22;10380;52.102;20.614;2023-09-12T15:50:47;31.30;81.70
20442;DHT22;10380;52.102;20.614;2023-09-12T15:58:08;31.10;81.70
20442;DHT22;10380;52.102;20.614;2023-09-12T16:00:36;31.00;82.10
20442;DHT22;10380;52.102;20.614;2023-09-12T16:03:04;30.90;83.30
20442;DHT22;10380;52.102;20.614;2023-09-12T16:12:53;30.30;85.00
20442;DHT22;10380;52.102;20.614;2023-09-12T16:15:21;30.10;98.50
20442;DHT22;10380;52.102;20.614;2023-09-12T16:17:48;29.80;98.40
20442;DHT22;10380;52.102;20.614;2023-09-12T16:20:15;29.70;87.50
20442;DHT22;10380;52.102;20.614;2023-09-12T16:22:42;29.00;97.50
20442;DHT22;10380;52.102;20.614;2023-09-12T16:27:37;28.90;99.60
20442;DHT22;10380;52.102;20.614;2023-09-12T16:30:05;28.80;90.00
20442;DHT22;10380;52.102;20.614;2023-09-12T16:32:37;28.70;90.50
20442;DHT22;10380;52.102;20.614;2023-09-12T16:35:05;28.50;90.80
20442;DHT22;10380;52.102;20.614;2023-09-12T16:37:32;27.90;99.90
20442;DHT22;10380;52.102;20.614;2023-09-12T16:40:00;28.10;91.70
20442;DHT22;10380;52.102;20.614;2023-09-12T16:42:28;27.70;99.90
20442;DHT22;10380;52.102;20.614;2023-09-12T16:44:58;27.80;92.90
20442;DHT22;10380;52.102;20.614;2023-09-12T16:47:31;27.30;99.90
20442;DHT22;10380;52.102;20.614;2023-09-12T16:49:58;27.50;93.70
20442;DHT22;10380;52.102;20.614;2023-09-12T16:52:25;27.30;94.50
20442;DHT22;10380;52.102;20.614;2023-09-12T16:54:53;27.10;99.90
20442;DHT22;10380;52.102;20.614;2023-09-12T16:57:22;26.90;99.90
20442;DHT22;10380;52.102;20.614;2023-09-12T16:59:49;26.80;96.20
20442;DHT22;10380;52.102;20.614;2023-09-12T17:02:16;26.60;96.70
20442;DHT22;10380;52.102;20.614;2023-09-12T17:04:43;26.50;97.40
20442;DHT22;10380;52.102;20.614;2023-09-12T17:07:11;26.30;98.10
20442;DHT22;10380;52.102;20.614;2023-09-12T17:09:39;26.10;98.70
20442;DHT22;10380;52.102;20.614;2023-09-12T17:12:06;26.00;99.90
20442;DHT22;10380;52.102;20.614;2023-09-12T17:14:34;25.70;99.90
20442;DHT22;10380;52.102;20.614;2023-09-12T17:17:01;25.60;99.90
20442;DHT22;10380;52.102;20.614;2023-09-12T17:19:28;25.60;99.90
20442;DHT22;10380;52.102;20.614;2023-09-12T17:21:56;25.10;99.90
20442;DHT22;10380;52.102;20.614;2023-09-12T17:24:23;25.30;99.90
20442;DHT22;10380;52.102;20.614;2023-09-12T17:26:50;25.20;99.90
20442;DHT22;10380;52.102;20.614;2023-09-12T17:29:17;25.20;99.90
20442;DHT22;10380;52.102;20.614;2023-09-12T17:31:44;24.90;99.90
20442;DHT22;10380;52.102;20.614;2023-09-12T17:34:13;24.90;99.90
20442;DHT22;10380;52.102;20.614;2023-09-12T17:36:41;24.80;99.90
20442;DHT22;10380;52.102;20.614;2023-09-12T17:39:08;24.70;99.90
20442;DHT22;10380;52.102;20.614;2023-09-12T17:41:39;24.60;99.90
20442;DHT22;10380;52.102;20.614;2023-09-12T17:44:06;24.40;99.90
20442;DHT22;10380;52.102;20.614;2023-09-12T17:46:33;24.50;99.90
20442;DHT22;10380;52.102;20.614;2023-09-12T17:49:00;24.20;99.90